Flight Track Log - Related Links

Times and Time Zones

All times are in EDT time to prevent confusion due to time zone crossing. See the N229CN flight status page for this flight to view local times or setup timezone preferences in your user account.

Time Position Orientation Groundspeed Altitude Reporting Facility
EDT Latitude Longitude Course Direction KTS MPH feet Rate Location/Type
Sun 01:19:54 PM 42.4667 -71.3000 334° Northwest 162 186 1,400  Level KA90
Sun 01:21:13 PM 42.5167 -71.3333 334° Northwest 204 235 3,100 2,571 Climbing KA90
Sun 01:22:07 PM 42.5500 -71.2667 56° Northeast 219 252 7,100 4,000 Climbing KA90
Sun 01:23:13 PM 42.6000 -71.2000 44° Northeast 248 285 11,100 3,466 Climbing KA90
Sun 01:24:03 PM 42.6461 -71.2206 342° North 242 278 13,800 2,400 Climbing Boston Center
Sun 01:25:03 PM 42.7172 -71.2503 343° North 257 296 15,500 1,934 Climbing Boston Center
Sun 01:26:04 PM 42.7742 -71.3117 322° Northwest 262 302 17,700 2,182 Climbing Boston Center
Sun 01:27:04 PM 42.8394 -71.3783 323° Northwest 275 316 19,900 1,140 Climbing Boston Center
Sun 01:28:05 PM 42.8983 -71.4539 317° Northwest 284 327 20,000 50 Climbing Boston Center
Sun 01:29:03 PM 42.9594 -71.5181 322° Northwest 296 341 20,000  Level Boston Center
Sun 01:30:05 PM 43.0286 -71.5908 322° Northwest 307 353 20,000  Level Boston Center
Sun 01:31:05 PM 43.0917 -71.6639 320° Northwest 307 353 20,000  Level Boston Center
Sun 01:32:04 PM 43.1569 -71.7372 321° Northwest 307 353 20,000  Level Boston Center
Sun 01:33:05 PM 43.2261 -71.8133 321° Northwest 307 353 20,000  Level Boston Center
Sun 01:34:03 PM 43.2869 -71.8839 320° Northwest 302 348 20,000  Level Boston Center
Sun 01:35:04 PM 43.3497 -71.9547 321° Northwest 302 348 20,000  Level Boston Center
Sun 01:36:04 PM 43.4103 -72.0256 320° Northwest 297 342 20,000  Level Boston Center
Sun 01:37:05 PM 43.4753 -72.0967 322° Northwest 292 336 20,000  Level Boston Center
Sun 01:38:03 PM 43.5358 -72.1708 318° Northwest 292 336 20,000  Level Boston Center
Sun 01:39:03 PM 43.5986 -72.2422 321° Northwest 292 336 20,000  Level Boston Center
Sun 01:40:04 PM 43.6611 -72.3139 320° Northwest 292 336 20,000  Level Boston Center
Sun 01:41:05 PM 43.7236 -72.3883 319° Northwest 292 336 20,000  Level Boston Center
Sun 01:42:03 PM 43.7864 -72.4572 322° Northwest 292 336 20,000 -559 Level Boston Center
Sun 01:43:03 PM 43.8444 -72.5294 318° Northwest 292 336 18,900 -1,785 Descending Boston Center
Sun 01:44:04 PM 43.8986 -72.5928 320° Northwest 280 322 16,400 -2,678 Descending Boston Center
Sun 01:45:04 PM 43.9589 -72.6650 319° Northwest 271 312 13,500 -2,628 Descending Boston Center
Sun 01:46:05 PM 44.0150 -72.7317 319° Northwest 262 302 11,100 -1,537 Descending Boston Center
Sun 01:47:05 PM 44.0756 -72.7639 339° North 240 276 10,400 -1,150 Descending Boston Center
Sun 01:48:05 PM 44.1400 -72.7814 349° North 233 268 8,800 -1,576 Descending Boston Center
Sun 01:49:03 PM 44.2044 -72.7992 349° North 227 261 7,300 -1,475 Descending Boston Center
Sun 01:50:03 PM 44.2628 -72.8228 344° North 222 255 5,900 -942 Descending Boston Center
Sun 01:51:04 PM 44.3000 -72.8753 315° West 194 223 5,400 -492 Descending Boston Center
Sun 01:52:05 PM 44.3333 -72.9306 310° West 189 217 4,900 -857 Descending Boston Center
Sun 01:53:03 PM 44.3622 -72.9772 311° West 179 206 3,700 -958 Descending Boston Center
Sun 01:54:04 PM 44.3850 -73.0153 310° West 150 173 3,000 -694 Descending Boston Center
Sun 01:55:04 PM 44.4036 -73.0444 312° West 121 139 2,300 -650 Descending Boston Center
Sun 01:56:04 PM 44.4219 -73.0767 309° West 109 125 1,700 -545 Descending Boston Center
Sun 01:57:05 PM 44.4386 -73.1000 315° West 98 113 1,200 -504 Descending Boston Center
Sun 01:58:03 PM 44.4550 -73.1264 311° West 98 113 700 -454 Descending Boston Center
Sun 01:59:04 PM 44.4717 -73.1528 312° West 93 107 300 -393 Descending Boston Center
Sun 02:01:00 PM 44.4667 -73.1500 316° Northwest  Level FlightAware Approximate

Login

Don't have an account? Register now (free) for customized features, flight alerts, and more!